Time;durP1;ratioP1;P1;durP2;ratioP2;P2;SDS_P1;SDS_P2;PMS_P1;PMS_P2;Temp;Humidity;BMP_temperature;BMP_pressure;BME280_temperature;BME280_humidity;BME280_pressure;Samples;Min_cycle;Max_cycle;Signal;HPM_P1;HPM_P2
2023/01/16 00:00:25;;;;;;;9.55;2.55;;;;;;;5.54;100.00;99489.66;2613800;31;20467;-58
2023/01/16 00:02:53;;;;;;;7.47;2.60;;;;;;;5.79;100.00;99489.13;2613906;36;20035;-58
2023/01/16 00:05:24;;;;;;;6.00;2.53;;;;;;;5.81;100.00;99480.97;2613893;36;20026;-58
2023/01/16 00:07:53;;;;;;;9.48;2.47;;;;;;;5.70;100.00;99475.78;2614527;36;20041;-58
2023/01/16 00:10:21;;;;;;;5.60;2.15;;;;;;;5.78;100.00;99473.25;2614072;36;20554;-58
2023/01/16 00:12:50;;;;;;;9.18;2.60;;;;;;;5.76;100.00;99469.88;2614258;36;20034;-58
2023/01/16 00:15:19;;;;;;;6.00;2.85;;;;;;;5.69;100.00;99464.25;2614358;31;20132;-57
2023/01/16 00:17:48;;;;;;;8.50;2.55;;;;;;;5.55;100.00;99465.50;2614867;36;20045;-57
2023/01/16 00:20:16;;;;;;;7.25;2.60;;;;;;;5.59;100.00;99464.25;2615493;36;20034;-58
2023/01/16 00:22:47;;;;;;;10.37;2.80;;;;;;;5.73;100.00;99462.16;2616404;36;20042;-58
2023/01/16 00:25:16;;;;;;;5.68;2.53;;;;;;;5.68;100.00;99453.72;2616445;36;20892;-59
2023/01/16 00:27:44;;;;;;;9.07;2.37;;;;;;;5.74;100.00;99442.47;2616748;36;20038;-58
2023/01/16 00:30:13;;;;;;;4.47;2.55;;;;;;;5.76;100.00;99443.19;2616063;36;20314;-58
2023/01/16 00:32:41;;;;;;;5.72;2.13;;;;;;;5.85;100.00;99428.97;2616647;31;20026;-57
2023/01/16 00:35:10;;;;;;;12.18;2.50;;;;;;;5.91;100.00;99433.75;2616521;36;20602;-58
2023/01/16 00:37:39;;;;;;;6.45;2.70;;;;;;;5.75;100.00;99431.63;2616167;31;20034;-59
2023/01/16 00:40:12;;;;;;;3.80;2.40;;;;;;;5.61;100.00;99424.06;2615088;36;20042;-56
2023/01/16 00:42:40;;;;;;;8.07;3.00;;;;;;;5.58;100.00;99430.53;2616769;36;20045;-58
2023/01/16 00:45:10;;;;;;;6.07;3.03;;;;;;;5.56;100.00;99420.97;2616379;36;20027;-57
2023/01/16 00:47:39;;;;;;;6.10;2.70;;;;;;;5.51;100.00;99416.06;2615835;31;20034;-58
2023/01/16 00:50:09;;;;;;;7.45;2.63;;;;;;;5.55;100.00;99409.47;2615387;36;20033;-57
2023/01/16 00:52:37;;;;;;;10.10;3.55;;;;;;;5.59;100.00;99408.19;2614663;36;20049;-58
2023/01/16 00:55:06;;;;;;;6.43;3.13;;;;;;;5.46;100.00;99404.94;2615001;36;20023;-58
2023/01/16 00:57:37;;;;;;;4.50;3.00;;;;;;;5.39;100.00;99393.16;2615617;36;20042;-55
2023/01/16 01:00:07;;;;;;;8.55;3.50;;;;;;;5.44;100.00;99386.41;2615466;36;20030;-59
2023/01/16 01:02:35;;;;;;;9.02;4.28;;;;;;;5.33;100.00;99383.00;2615755;36;20033;-58
2023/01/16 01:05:06;;;;;;;5.97;3.30;;;;;;;5.31;100.00;99385.81;2615608;31;20026;-58
2023/01/16 01:07:34;;;;;;;11.23;3.60;;;;;;;5.18;100.00;99380.78;2615315;36;20033;-58
2023/01/16 01:10:03;;;;;;;8.20;4.22;;;;;;;5.20;100.00;99380.63;2615716;36;20038;-57
2023/01/16 01:12:31;;;;;;;6.82;4.32;;;;;;;5.23;100.00;99375.84;2615366;36;20026;-56
2023/01/16 01:15:02;;;;;;;7.05;4.15;;;;;;;5.15;100.00;99370.34;2614782;31;20026;-58
2023/01/16 01:17:31;;;;;;;6.50;3.90;;;;;;;5.15;100.00;99359.69;2615624;31;20113;-58
2023/01/16 01:19:59;;;;;;;6.97;4.20;;;;;;;5.08;100.00;99374.59;2615373;36;20034;-59
2023/01/16 01:22:28;;;;;;;10.23;4.40;;;;;;;5.21;100.00;99355.63;2614304;31;20042;-58
2023/01/16 01:24:57;;;;;;;7.40;3.95;;;;;;;5.12;100.00;99357.31;2615281;36;20042;-57
2023/01/16 01:27:25;;;;;;;9.20;4.35;;;;;;;5.22;100.00;99360.00;2615393;36;20041;-57
2023/01/16 01:29:54;;;;;;;6.78;4.18;;;;;;;5.40;100.00;99365.47;2615397;36;20046;-57
2023/01/16 01:32:24;;;;;;;7.57;4.00;;;;;;;5.38;100.00;99356.78;2615150;36;20033;-58
2023/01/16 01:34:53;;;;;;;7.90;4.43;;;;;;;5.36;100.00;99345.38;2615437;36;20038;-57
2023/01/16 01:37:21;;;;;;;11.02;4.72;;;;;;;5.44;100.00;99348.22;2615064;36;20030;-57
2023/01/16 01:39:50;;;;;;;9.13;5.10;;;;;;;5.38;100.00;99335.44;2616277;31;20033;-57
2023/01/16 01:45:03;;;;;;;11.77;6.05;;;;;;;5.39;100.00;99342.47;2615937;36;20657;-57
2023/01/16 01:47:39;;;;;;;9.52;5.68;;;;;;;5.32;100.00;99336.00;2615334;36;20034;-58
2023/01/16 01:50:21;;;;;;;11.55;6.03;;;;;;;5.37;100.00;99334.56;2614954;36;20035;-55
2023/01/16 01:52:50;;;;;;;9.75;5.35;;;;;;;5.34;100.00;99332.19;2615392;36;20042;-58
2023/01/16 01:55:21;;;;;;;9.75;6.07;;;;;;;5.48;100.00;99322.94;2614995;36;20042;-56
2023/01/16 01:57:55;;;;;;;15.60;7.38;;;;;;;5.43;100.00;99314.50;2615210;36;20049;-57
2023/01/16 02:00:25;;;;;;;11.93;6.68;;;;;;;5.53;100.00;99312.66;2615278;36;20038;-57
2023/01/16 02:03:01;;;;;;;13.90;7.57;;;;;;;5.46;100.00;99306.19;2615102;36;20034;-58
2023/01/16 02:05:33;;;;;;;13.65;7.85;;;;;;;5.43;100.00;99293.16;2615407;36;20455;-56
2023/01/16 02:08:04;;;;;;;18.55;8.57;;;;;;;5.44;100.00;99293.00;2615117;36;20038;-58
2023/01/16 02:10:39;;;;;;;18.95;9.95;;;;;;;5.38;100.00;99290.91;2614580;36;20042;-57
2023/01/16 02:13:08;;;;;;;16.23;9.60;;;;;;;5.43;100.00;99283.34;2614486;36;20459;-58
2023/01/16 02:15:36;;;;;;;18.83;10.35;;;;;;;5.39;100.00;99281.09;2614304;31;20038;-59
2023/01/16 02:21:07;;;;;;;23.63;10.88;;;;;;;5.52;100.00;99286.97;2613712;36;20066;-58
2023/01/16 02:24:02;;;;;;;27.05;12.35;;;;;;;5.55;100.00;99277.81;2612837;36;20046;-59
2023/01/16 02:26:55;;;;;;;20.27;10.43;;;;;;;5.47;100.00;99267.88;2614351;31;20451;-57
2023/01/16 02:29:52;;;;;;;20.27;9.77;;;;;;;5.54;100.00;99270.81;2613908;36;20038;-57
2023/01/16 02:32:41;;;;;;;21.60;10.60;;;;;;;5.47;100.00;99267.88;2614078;36;20038;-57
2023/01/16 02:35:27;;;;;;;22.67;10.77;;;;;;;5.33;100.00;99254.97;2614716;36;20026;-58
2023/01/16 02:37:58;;;;;;;20.10;10.55;;;;;;;5.58;100.00;99250.84;2632529;36;20030;-57
2023/01/16 02:40:38;;;;;;;22.63;10.30;;;;;;;5.35;100.00;99247.69;2614971;36;20566;-56
2023/01/16 02:43:17;;;;;;;25.50;11.23;;;;;;;5.33;100.00;99242.47;2614611;31;20038;-57
2023/01/16 02:45:51;;;;;;;23.08;11.23;;;;;;;5.48;100.00;99231.34;2615598;36;20042;-58
2023/01/16 02:48:31;;;;;;;20.27;11.13;;;;;;;5.38;100.00;99221.53;2613620;36;20065;-56
2023/01/16 02:51:03;;;;;;;;;;;;;;;5.32;100.00;99229.28;2615499;36;20026;-58
2023/01/16 02:53:38;;;;;;;20.45;11.00;;;;;;;5.30;100.00;99228.56;2615300;36;19950;-57
2023/01/16 02:56:11;;;;;;;20.15;10.95;;;;;;;5.23;100.00;99217.66;2614813;36;20034;-57
2023/01/16 02:58:46;;;;;;;21.10;10.05;;;;;;;5.30;100.00;99207.22;2614959;36;20035;-59
2023/01/16 03:01:14;;;;;;;18.63;10.35;;;;;;;5.32;100.00;99210.63;2616265;36;20439;-58
2023/01/16 03:03:52;;;;;;;17.60;9.43;;;;;;;5.34;100.00;99204.13;2615158;54;20477;-58
2023/01/16 03:06:33;;;;;;;18.38;10.57;;;;;;;5.41;100.00;99204.41;2615015;36;20030;-59
2023/01/16 03:09:24;;;;;;;17.80;9.07;;;;;;;5.23;100.00;99198.97;2615564;31;20590;-59
2023/01/16 03:12:06;;;;;;;21.85;10.98;;;;;;;5.40;100.00;99202.72;2615790;36;20038;-59
2023/01/16 03:14:40;;;;;;;17.42;9.40;;;;;;;5.31;100.00;99198.25;2615542;36;20042;-59
2023/01/16 03:17:20;;;;;;;15.38;8.60;;;;;;;5.50;100.00;99187.53;2616143;36;20080;-59
2023/01/16 03:20:10;;;;;;;15.32;7.82;;;;;;;5.48;100.00;99180.66;2615559;36;21391;-59
2023/01/16 03:22:44;;;;;;;14.85;8.60;;;;;;;5.31;100.00;99179.56;2614251;36;20038;-59
2023/01/16 03:25:26;;;;;;;13.68;7.28;;;;;;;5.17;100.00;99188.88;2615046;36;20041;-59
2023/01/16 03:28:06;;;;;;;13.95;6.65;;;;;;;5.00;100.00;99185.09;2615246;36;20033;-59
2023/01/16 03:30:43;;;;;;;15.73;7.03;;;;;;;5.07;100.00;99167.56;2615343;36;20046;-60
2023/01/16 03:33:19;;;;;;;11.30;6.40;;;;;;;5.24;100.00;99158.81;2616169;36;20042;-59
2023/01/16 03:35:55;;;;;;;13.32;6.45;;;;;;;5.27;100.00;99157.69;2616175;36;20034;-60
2023/01/16 03:38:26;;;;;;;15.77;6.18;;;;;;;5.22;100.00;99141.28;2615152;36;20039;-59
2023/01/16 03:41:00;;;;;;;10.63;6.07;;;;;;;5.13;100.00;99134.16;2614781;36;20038;-57
2023/01/16 03:43:32;;;;;;;12.90;6.15;;;;;;;5.15;100.00;99134.81;2615317;36;20034;-57
2023/01/16 03:46:06;;;;;;;13.45;4.60;;;;;;;4.93;100.00;99120.00;2616019;36;20026;-58
2023/01/16 03:48:42;;;;;;;12.57;5.82;;;;;;;4.91;100.00;99107.63;2614880;36;20057;-58
2023/01/16 03:51:20;;;;;;;13.82;5.88;;;;;;;4.88;100.00;99096.44;2615898;36;20082;-57
2023/01/16 03:53:59;;;;;;;11.90;6.03;;;;;;;4.96;100.00;99090.38;2615853;36;20026;-58
2023/01/16 03:56:34;;;;;;;11.50;5.30;;;;;;;4.89;100.00;99090.97;2614921;36;20022;-56
2023/01/16 03:59:04;;;;;;;18.95;6.90;;;;;;;4.91;100.00;99074.81;2615070;36;20582;-59
2023/01/16 04:01:40;;;;;;;20.17;7.60;;;;;;;4.71;100.00;99084.66;2616273;36;20435;-58
2023/01/16 04:04:13;;;;;;;16.33;5.97;;;;;;;4.87;100.00;99076.09;2615337;36;20431;-59
2023/01/16 04:06:52;;;;;;;10.75;4.97;;;;;;;4.65;100.00;99083.44;2615684;36;20539;-59
2023/01/16 04:09:26;;;;;;;14.98;5.88;;;;;;;4.66;100.00;99082.44;2615730;36;20027;-56
2023/01/16 04:11:56;;;;;;;20.45;5.55;;;;;;;4.61;100.00;99076.69;2616085;36;20548;-59
2023/01/16 04:14:26;;;;;;;19.88;5.30;;;;;;;4.64;100.00;99071.09;2615745;36;20138;-59
2023/01/16 04:16:54;;;;;;;13.18;5.15;;;;;;;4.61;100.00;99050.06;2615503;36;20443;-61
2023/01/16 04:19:25;;;;;;;9.35;3.90;;;;;;;4.65;100.00;99038.13;2615502;36;20038;-58
2023/01/16 04:21:56;;;;;;;9.18;3.90;;;;;;;4.69;100.00;99034.16;2615040;36;20023;-59
2023/01/16 04:24:25;;;;;;;7.32;4.13;;;;;;;4.72;100.00;99033.06;2615582;36;20585;-59
2023/01/16 04:26:53;;;;;;;7.78;4.10;;;;;;;4.64;100.00;99019.59;2616095;36;20444;-57
2023/01/16 04:29:22;;;;;;;10.40;4.00;;;;;;;4.61;100.00;99014.56;2616204;31;20121;-58
2023/01/16 04:31:50;;;;;;;7.22;3.60;;;;;;;4.58;100.00;99013.03;2617572;36;20038;-57
2023/01/16 04:34:18;;;;;;;8.55;4.18;;;;;;;4.60;100.00;99005.72;2615330;31;20027;-58
2023/01/16 04:36:47;;;;;;;10.93;3.35;;;;;;;4.65;100.00;99000.81;2615775;31;20066;-59
2023/01/16 04:39:18;;;;;;;6.47;2.70;;;;;;;4.70;100.00;98987.06;2615553;36;20029;-57
2023/01/16 04:41:50;;;;;;;7.65;3.25;;;;;;;4.59;100.00;98989.88;2615896;36;20035;-58
2023/01/16 04:44:34;;;;;;;7.82;3.70;;;;;;;4.46;100.00;98980.38;2618644;35;20862;-58
2023/01/16 04:47:02;;;;;;;11.68;3.42;;;;;;;4.41;100.00;98963.97;2620015;36;20543;-58
2023/01/16 04:49:30;;;;;;;5.50;3.05;;;;;;;4.41;100.00;98965.81;2619279;36;20041;-55
2023/01/16 04:51:59;;;;;;;7.73;2.70;;;;;;;4.49;100.00;98952.59;2620095;31;20413;-59
2023/01/16 04:54:27;;;;;;;11.23;3.03;;;;;;;4.47;100.00;98947.41;2619304;31;20031;-58
2023/01/16 04:56:56;;;;;;;8.20;2.67;;;;;;;4.66;100.00;98933.19;2619806;31;20045;-55
2023/01/16 04:59:25;;;;;;;5.82;2.75;;;;;;;4.58;100.00;98922.44;2619573;36;20037;-57
2023/01/16 05:01:56;;;;;;;4.50;2.53;;;;;;;4.57;100.00;98910.94;2620710;31;20445;-58
2023/01/16 05:04:24;;;;;;;6.53;2.65;;;;;;;4.62;100.00;98907.00;2618964;31;20759;-58
2023/01/16 05:06:52;;;;;;;6.43;2.75;;;;;;;4.65;100.00;98888.91;2619443;36;20034;-58
2023/01/16 05:09:21;;;;;;;8.68;3.95;;;;;;;4.62;100.00;98891.00;2619950;36;20063;-58
2023/01/16 05:11:49;;;;;;;10.40;3.42;;;;;;;4.63;100.00;98874.03;2619444;36;20041;-57
2023/01/16 05:14:17;;;;;;;5.18;2.38;;;;;;;4.62;100.00;98873.19;2619316;36;20034;-59
2023/01/16 05:16:46;;;;;;;7.13;2.75;;;;;;;4.68;100.00;98867.28;2619836;36;20562;-57
2023/01/16 05:19:17;;;;;;;6.97;2.65;;;;;;;4.62;100.00;98861.69;2618853;36;20041;-58
2023/01/16 05:21:45;;;;;;;5.65;2.47;;;;;;;4.42;100.00;98861.78;2618512;36;20045;-57
2023/01/16 05:24:13;;;;;;;6.15;2.40;;;;;;;4.35;100.00;98850.03;2618391;36;21401;-57
2023/01/16 05:26:42;;;;;;;7.35;2.42;;;;;;;4.42;100.00;98842.28;2619570;31;20034;-57
2023/01/16 05:29:10;;;;;;;10.63;2.45;;;;;;;4.39;100.00;98833.63;2619117;36;20033;-58
2023/01/16 05:31:38;;;;;;;4.75;2.20;;;;;;;4.39;100.00;98832.78;2619424;31;20023;-58
2023/01/16 05:34:07;;;;;;;7.65;2.40;;;;;;;4.38;100.00;98825.78;2618902;36;20038;-54
2023/01/16 05:36:38;;;;;;;6.38;2.60;;;;;;;4.36;100.00;98815.25;2619746;31;20427;-57
2023/01/16 05:39:06;;;;;;;7.05;2.67;;;;;;;4.32;100.00;98807.72;2619610;36;20026;-56
2023/01/16 05:41:34;;;;;;;2.85;2.05;;;;;;;4.28;100.00;98806.31;2618874;36;20038;-59
2023/01/16 05:44:03;;;;;;;10.30;2.65;;;;;;;4.20;100.00;98799.06;2619539;36;20038;-57
2023/01/16 05:46:31;;;;;;;6.88;2.75;;;;;;;4.13;100.00;98796.16;2618372;36;20129;-60
2023/01/16 05:48:59;;;;;;;5.13;2.53;;;;;;;4.16;100.00;98797.69;2619303;36;20061;-55
2023/01/16 05:51:28;;;;;;;7.60;2.20;;;;;;;4.08;100.00;98779.78;2619196;36;20064;-58
2023/01/16 05:53:59;;;;;;;9.15;2.60;;;;;;;4.07;100.00;98772.78;2618996;36;20551;-58
2023/01/16 05:56:28;;;;;;;5.65;1.90;;;;;;;4.03;100.00;98766.91;2615238;36;20034;-57
2023/01/16 05:58:57;;;;;;;4.78;2.35;;;;;;;4.05;100.00;98764.09;2615670;36;20039;-58
2023/01/16 06:01:25;;;;;;;7.10;2.13;;;;;;;4.07;100.00;98750.66;2615016;36;20073;-57
2023/01/16 06:03:53;;;;;;;8.65;2.78;;;;;;;4.11;100.00;98744.88;2615134;36;20038;-57
2023/01/16 06:06:22;;;;;;;5.47;1.85;;;;;;;4.08;100.00;98728.34;2615983;36;20037;-57
2023/01/16 06:08:50;;;;;;;6.68;1.88;;;;;;;4.08;100.00;98726.53;2616110;36;20039;-59
2023/01/16 06:11:21;;;;;;;7.35;2.08;;;;;;;4.00;100.00;98716.59;2615494;36;20029;-59
2023/01/16 06:13:49;;;;;;;9.05;2.10;;;;;;;4.06;100.00;98701.88;2615987;36;20442;-57
2023/01/16 06:16:18;;;;;;;5.93;2.13;;;;;;;4.05;100.00;98700.22;2616000;31;20038;-56
2023/01/16 06:18:46;;;;;;;6.60;2.03;;;;;;;4.07;100.00;98692.09;2615317;36;20041;-54
2023/01/16 06:21:16;;;;;;;5.60;2.13;;;;;;;4.10;100.00;98676.66;2615496;36;20045;-58
2023/01/16 06:23:44;;;;;;;9.30;2.63;;;;;;;4.22;100.00;98674.63;2615686;36;20038;-57
2023/01/16 06:26:13;;;;;;;7.03;2.25;;;;;;;4.23;100.00;98660.31;2615667;36;20081;-56
2023/01/16 06:28:44;;;;;;;6.55;2.90;;;;;;;4.29;100.00;98646.41;2614937;36;20034;-57
2023/01/16 06:31:12;;;;;;;5.43;2.20;;;;;;;4.30;100.00;98639.25;2614644;36;20042;-57
2023/01/16 06:33:40;;;;;;;4.45;1.95;;;;;;;4.38;100.00;98640.16;2614458;31;20042;-58
2023/01/16 06:36:09;;;;;;;10.75;3.05;;;;;;;4.37;100.00;98635.00;2615535;36;20046;-57
2023/01/16 06:38:38;;;;;;;10.03;2.47;;;;;;;4.37;100.00;98630.53;2614429;36;20527;-56
2023/01/16 06:41:06;;;;;;;7.22;2.20;;;;;;;4.35;100.00;98627.16;2616396;36;20186;-57
2023/01/16 06:43:35;;;;;;;4.53;2.30;;;;;;;4.34;100.00;98628.16;2614941;36;20034;-57
2023/01/16 06:46:06;;;;;;;7.17;2.40;;;;;;;4.38;100.00;98610.88;2615459;36;20034;-57
2023/01/16 06:48:34;;;;;;;4.70;2.38;;;;;;;4.44;100.00;98612.09;2614415;36;20034;-59
2023/01/16 06:51:02;;;;;;;7.87;2.07;;;;;;;4.50;100.00;98608.81;2613381;36;20554;-57
2023/01/16 06:53:32;;;;;;;5.68;1.90;;;;;;;4.55;100.00;98601.22;2614015;36;20041;-59
2023/01/16 06:56:00;;;;;;;10.50;2.60;;;;;;;4.62;100.00;98605.91;2614098;31;20038;-59
2023/01/16 06:58:29;;;;;;;8.60;2.20;;;;;;;4.69;100.00;98596.31;2614862;31;20034;-57
2023/01/16 07:00:57;;;;;;;4.68;2.25;;;;;;;4.63;100.00;98596.94;2614312;36;20038;-59
2023/01/16 07:03:28;;;;;;;5.10;2.33;;;;;;;4.65;100.00;98590.47;2615202;36;20427;-58
2023/01/16 07:05:57;;;;;;;3.70;1.92;;;;;;;4.65;100.00;98589.63;2614574;31;20042;-58
2023/01/16 07:08:25;;;;;;;5.22;2.35;;;;;;;4.76;100.00;98591.22;2610128;36;20045;-59
2023/01/16 07:10:54;;;;;;;6.35;2.15;;;;;;;4.77;100.00;98593.75;2612236;36;20038;-57
2023/01/16 07:13:27;;;;;;;8.18;2.42;;;;;;;4.78;100.00;98590.06;2614367;36;20049;-58
2023/01/16 07:24:09;;;;;;;5.47;2.00;;;;;;;4.72;100.00;98572.03;2614320;36;20050;-59
2023/01/16 07:26:40;;;;;;;8.25;2.15;;;;;;;4.81;100.00;98565.75;2613467;36;20184;-59
2023/01/16 07:29:09;;;;;;;4.53;2.13;;;;;;;4.81;100.00;98557.75;2613567;36;20042;-58
2023/01/16 07:31:38;;;;;;;6.30;1.83;;;;;;;4.86;100.00;98550.16;2613707;36;20068;-58
2023/01/16 07:34:09;;;;;;;4.03;1.98;;;;;;;4.82;100.00;98545.28;2613219;31;20034;-58
2023/01/16 07:36:37;;;;;;;5.28;1.92;;;;;;;4.67;100.00;98534.38;2614617;36;20046;-57
2023/01/16 07:39:05;;;;;;;7.30;2.22;;;;;;;4.82;100.00;98521.31;2615195;36;20046;-58
2023/01/16 07:41:34;;;;;;;5.70;1.92;;;;;;;4.84;100.00;98514.81;2613004;31;20559;-58
2023/01/16 07:44:02;;;;;;;6.20;1.48;;;;;;;4.77;100.00;98515.59;2614722;36;20026;-59
2023/01/16 07:46:31;;;;;;;4.45;1.50;;;;;;;4.82;100.00;98506.16;2615232;36;20448;-59
2023/01/16 07:48:59;;;;;;;5.23;2.07;;;;;;;4.93;100.00;98507.69;2614662;31;20446;-59
2023/01/16 07:51:30;;;;;;;5.22;2.05;;;;;;;4.97;100.00;98494.91;2614710;36;20306;-60
2023/01/16 07:53:59;;;;;;;6.32;1.27;;;;;;;4.88;100.00;98492.19;2615657;36;20617;-59
2023/01/16 07:56:27;;;;;;;7.18;1.90;;;;;;;4.93;100.00;98481.03;2614654;36;20042;-59
2023/01/16 07:58:55;;;;;;;4.80;1.55;;;;;;;4.84;100.00;98461.50;2615537;36;20035;-59
2023/01/16 08:01:24;;;;;;;4.47;1.90;;;;;;;4.94;100.00;98458.72;2614367;36;20029;-60
2023/01/16 08:03:52;;;;;;;6.53;2.13;;;;;;;4.86;100.00;98448.88;2614376;36;20034;-59
2023/01/16 08:06:20;;;;;;;6.18;2.53;;;;;;;4.98;100.00;98448.59;2615101;36;20035;-59
2023/01/16 08:08:51;;;;;;;7.75;3.05;;;;;;;4.91;100.00;98432.41;2615544;36;20559;-58
2023/01/16 08:14:00;;;;;;;5.00;3.35;;;;;;;4.92;100.00;98420.75;2615824;36;20416;-59
2023/01/16 08:16:29;;;;;;;8.90;3.63;;;;;;;4.91;100.00;98403.06;2614513;31;20039;-58
2023/01/16 08:18:57;;;;;;;6.78;3.50;;;;;;;4.94;100.00;98402.75;2615474;36;20577;-58
2023/01/16 08:21:26;;;;;;;10.77;4.35;;;;;;;4.98;100.00;98387.28;2615682;36;20546;-59
2023/01/16 08:23:57;;;;;;;9.02;4.50;;;;;;;5.00;100.00;98385.28;2614789;36;20038;-59
2023/01/16 08:26:26;;;;;;;9.80;4.65;;;;;;;4.93;100.00;98378.94;2614595;36;20042;-57
2023/01/16 08:28:54;;;;;;;5.93;3.80;;;;;;;5.02;100.00;98375.28;2614613;36;20027;-59
2023/01/16 08:31:23;;;;;;;11.35;4.95;;;;;;;4.93;100.00;98373.59;2616326;31;20502;-55
2023/01/16 08:33:52;;;;;;;9.40;4.68;;;;;;;4.87;100.00;98375.91;2614067;31;20035;-58
2023/01/16 08:36:20;;;;;;;9.98;5.75;;;;;;;4.90;100.00;98356.94;2615193;31;20526;-55
2023/01/16 08:38:49;;;;;;;11.25;5.35;;;;;;;5.04;100.00;98359.97;2614926;36;20045;-56
2023/01/16 08:52:18;;;;;;;7.13;4.72;;;;;;;4.66;100.00;98314.22;2613914;36;20038;-57
2023/01/16 08:54:46;;;;;;;7.72;5.07;;;;;;;4.68;100.00;98313.06;2614905;36;20022;-54
2023/01/16 08:57:17;;;;;;;6.32;4.53;;;;;;;4.62;100.00;98295.03;2615265;36;20030;-57
2023/01/16 08:59:46;;;;;;;7.43;4.22;;;;;;;4.73;100.00;98293.91;2614734;36;20558;-54
2023/01/16 09:02:15;;;;;;;9.25;5.13;;;;;;;4.68;100.00;98280.22;2614710;36;20045;-59
2023/01/16 09:04:44;;;;;;;6.82;4.68;;;;;;;4.60;100.00;98272.22;2614482;36;20023;-54
2023/01/16 09:07:12;;;;;;;11.18;5.20;;;;;;;4.70;100.00;98268.44;2615619;36;20069;-56
2023/01/16 09:09:40;;;;;;;7.93;4.90;;;;;;;4.67;100.00;98259.94;2615415;36;20045;-58
2023/01/16 09:14:54;;;;;;;7.82;4.20;;;;;;;4.61;100.00;98245.44;2616184;36;20051;-55
2023/01/16 09:17:23;;;;;;;8.82;4.00;;;;;;;4.63;100.00;98237.28;2615820;36;20023;-58
2023/01/16 09:19:52;;;;;;;8.43;4.07;;;;;;;4.83;100.00;98230.66;2616010;36;20042;-56
2023/01/16 09:22:21;;;;;;;7.00;4.25;;;;;;;4.68;100.00;98225.13;2615309;36;20050;-53
2023/01/16 09:24:49;;;;;;;8.43;4.40;;;;;;;4.66;100.00;98218.28;2616005;36;20031;-55
2023/01/16 09:27:18;;;;;;;6.38;3.70;;;;;;;4.75;100.00;98214.63;2615941;32;20086;-54
2023/01/16 09:29:46;;;;;;;7.72;3.55;;;;;;;4.92;100.00;98207.50;2615670;36;20046;-58
2023/01/16 09:32:18;;;;;;;8.90;3.70;;;;;;;4.93;100.00;98197.69;2615242;36;20034;-56
2023/01/16 09:34:47;;;;;;;8.00;4.35;;;;;;;4.80;100.00;98195.50;2615258;36;20060;-57
2023/01/16 09:37:15;;;;;;;5.82;3.80;;;;;;;4.96;100.00;98186.69;2615441;36;20037;-58
2023/01/16 09:39:44;;;;;;;7.07;3.58;;;;;;;4.86;100.00;98174.34;2616110;36;20475;-57
2023/01/16 09:45:14;;;;;;;8.82;4.10;;;;;;;4.97;100.00;98162.53;2617187;36;20420;-57
2023/01/16 09:47:50;;;;;;;7.95;3.67;;;;;;;4.90;100.00;98167.69;2617186;36;20038;-58
2023/01/16 09:50:27;;;;;;;8.15;3.90;;;;;;;4.97;100.00;98167.03;2615904;31;20046;-52
2023/01/16 09:58:38;;;;;;;6.40;3.70;;;;;;;5.18;100.00;98151.38;2615997;36;20022;-57
2023/01/16 10:01:09;;;;;;;6.60;3.83;;;;;;;5.38;100.00;98148.31;2615994;36;20026;-54
2023/01/16 10:03:42;;;;;;;7.10;3.70;;;;;;;5.37;100.00;98141.31;2614530;36;20027;-57
2023/01/16 10:06:20;;;;;;;9.65;4.00;;;;;;;5.25;100.00;98133.66;2615157;36;20575;-57
2023/01/16 10:08:58;;;;;;;7.13;4.13;;;;;;;5.41;100.00;98134.66;2616537;36;20553;-55
2023/01/16 10:11:40;;;;;;;5.72;3.78;;;;;;;5.31;100.00;98126.00;2615815;36;20073;-54
2023/01/16 10:14:22;;;;;;;4.75;3.25;;;;;;;5.30;100.00;98119.00;2615158;31;20146;-56
2023/01/16 10:17:00;;;;;;;7.60;3.92;;;;;;;5.50;100.00;98114.94;2615528;36;20583;-56
2023/01/16 10:19:46;;;;;;;5.83;3.43;;;;;;;5.40;100.00;98106.31;2615370;36;20049;-56
2023/01/16 10:22:39;;;;;;;4.70;3.58;;;;;;;5.47;100.00;98101.94;2615499;36;20038;-56
2023/01/16 10:25:18;;;;;;;4.78;3.38;;;;;;;5.32;100.00;98101.81;2615369;36;20030;-55
2023/01/16 10:27:56;;;;;;;6.38;3.38;;;;;;;5.26;100.00;98092.66;2615377;36;20057;-55
2023/01/16 10:30:29;;;;;;;4.18;3.10;;;;;;;5.38;100.00;98094.97;2615921;36;20375;-52
2023/01/16 10:33:06;;;;;;;5.72;3.40;;;;;;;5.56;100.00;98090.25;2614645;36;20049;-52
2023/01/16 10:35:41;;;;;;;7.00;3.47;;;;;;;5.58;100.00;98082.06;2614282;36;20562;-55
2023/01/16 10:38:24;;;;;;;8.90;4.43;;;;;;;5.54;100.00;98070.91;2614300;36;20050;-57
2023/01/16 10:40:55;;;;;;;5.82;3.75;;;;;;;5.44;100.00;98071.09;2615803;36;20034;-53
2023/01/16 10:51:44;;;;;;;4.60;3.30;;;;;;;5.47;100.00;98043.25;2616238;36;20065;-54
2023/01/16 10:54:13;;;;;;;5.13;3.13;;;;;;;5.47;100.00;98037.94;2616205;36;20034;-54
2023/01/16 10:56:41;;;;;;;4.30;3.47;;;;;;;5.48;100.00;98031.59;2615951;36;20045;-58
2023/01/16 10:59:11;;;;;;;3.42;2.85;;;;;;;5.50;100.00;98029.56;2616225;36;20049;-54
2023/01/16 11:01:43;;;;;;;4.00;3.53;;;;;;;5.59;100.00;98028.56;2616648;36;20443;-54
2023/01/16 11:04:14;;;;;;;6.13;3.60;;;;;;;5.58;100.00;98015.34;2614400;36;20102;-55
2023/01/16 11:06:45;;;;;;;5.10;3.20;;;;;;;5.63;100.00;98023.69;2616247;36;20027;-57
2023/01/16 11:09:20;;;;;;;7.75;3.47;;;;;;;5.52;100.00;98016.06;2614169;36;20209;-56
2023/01/16 11:20:09;;;;;;;3.72;3.25;;;;;;;5.47;100.00;98003.25;2614471;36;20058;-57
2023/01/16 11:22:42;;;;;;;6.32;3.95;;;;;;;5.56;100.00;98002.19;2615170;36;20030;-56
2023/01/16 11:25:20;;;;;;;5.75;3.60;;;;;;;5.59;100.00;97990.34;2615367;36;20045;-54
2023/01/16 11:27:51;;;;;;;5.45;3.10;;;;;;;5.48;100.00;97986.25;2615904;36;20038;-54
2023/01/16 11:30:22;;;;;;;4.45;3.25;;;;;;;5.67;100.00;97976.97;2614686;36;20034;-57
2023/01/16 11:32:57;;;;;;;4.05;3.00;;;;;;;5.54;100.00;97982.88;2613742;36;20459;-59
2023/01/16 11:35:32;;;;;;;4.80;3.22;;;;;;;5.56;100.00;97975.50;2614303;36;20037;-56
2023/01/16 11:38:05;;;;;;;5.78;3.00;;;;;;;5.65;100.00;97970.16;2615688;32;20038;-58
2023/01/16 11:40:38;;;;;;;4.70;3.30;;;;;;;5.54;100.00;97966.88;2614359;36;20151;-53
2023/01/16 11:46:07;;;;;;;4.97;2.80;;;;;;;5.42;100.00;97952.28;2615711;36;20185;-58
2023/01/16 11:48:40;;;;;;;4.75;2.83;;;;;;;5.57;100.00;97939.00;2613626;36;20037;-53
2023/01/16 11:51:15;;;;;;;5.82;2.97;;;;;;;5.46;100.00;97942.88;2614629;31;20026;-51
2023/01/16 11:53:49;;;;;;;5.22;2.90;;;;;;;5.65;100.00;97935.47;2613326;36;20061;-55
2023/01/16 11:56:33;;;;;;;4.13;2.75;;;;;;;5.70;100.00;97923.25;2613544;36;20042;-59
2023/01/16 11:59:18;;;;;;;4.57;2.88;;;;;;;5.70;100.00;97912.56;2614598;36;21791;-57
2023/01/16 12:05:53;;;;;;;4.07;2.42;;;;;;;5.73;100.00;97903.41;2614960;36;20080;-54
2023/01/16 12:07:42;;;;;;;6.30;3.53;;;;;;;5.67;100.00;97888.91;2614323;36;20031;-57
2023/01/16 12:10:33;;;;;;;4.90;2.83;;;;;;;5.70;100.00;97887.75;2614797;36;20038;-57
2023/01/16 12:16:01;;;;;;;4.85;2.20;;;;;;;5.75;100.00;97877.34;2616022;36;20027;-59
2023/01/16 12:18:37;;;;;;;3.85;2.78;;;;;;;5.89;100.00;97868.56;2615250;36;20145;-57
2023/01/16 12:21:09;;;;;;;5.22;2.63;;;;;;;5.87;100.00;97862.56;2615363;36;20114;-58
2023/01/16 12:23:56;;;;;;;4.88;2.65;;;;;;;5.92;100.00;97852.19;2615287;36;20535;-57
2023/01/16 12:26:29;;;;;;;6.00;2.33;;;;;;;6.00;100.00;97845.16;2614543;36;20038;-57
2023/01/16 12:29:17;;;;;;;7.40;3.47;;;;;;;6.23;100.00;97845.91;2615530;36;20023;-58
2023/01/16 12:31:56;;;;;;;5.63;3.13;;;;;;;6.27;100.00;97836.53;2614667;36;20114;-58
2023/01/16 12:34:58;;;;;;;4.07;2.50;;;;;;;6.28;100.00;97834.69;2613884;36;20035;-57
2023/01/16 12:37:48;;;;;;;3.75;2.55;;;;;;;6.32;100.00;97826.13;2614875;36;20038;-57
2023/01/16 12:40:34;;;;;;;4.03;2.47;;;;;;;6.38;100.00;97824.56;2614186;31;20450;-58
2023/01/16 12:43:22;;;;;;;3.63;2.20;;;;;;;6.45;100.00;97820.13;2614675;36;20038;-58
2023/01/16 12:45:54;;;;;;;3.55;2.00;;;;;;;6.41;100.00;97823.38;2615162;36;20046;-58
2023/01/16 12:48:40;;;;;;;3.65;1.70;;;;;;;6.61;100.00;97818.28;2613400;36;20562;-58
2023/01/16 12:51:36;;;;;;;2.78;2.00;;;;;;;6.57;100.00;97817.81;2614073;36;20566;-59
2023/01/16 12:54:17;;;;;;;3.38;1.77;;;;;;;6.58;100.00;97808.81;2615096;36;20038;-58
2023/01/16 12:56:56;;;;;;;3.47;1.70;;;;;;;6.59;100.00;97804.28;2614879;36;20038;-58
2023/01/16 12:59:31;;;;;;;3.08;1.58;;;;;;;6.79;100.00;97801.88;2615336;36;20030;-57